sensor_id;sensor_type;location;lat;lon;timestamp;pressure;altitude;pressure_sealevel;temperature;humidity
5780;BME280;2916;49.798;10.022;2023-04-25T00:00:31;146371.06;;;8.41;92.35
5780;BME280;2916;49.798;10.022;2023-04-25T00:03:01;146364.88;;;8.39;92.12
5780;BME280;2916;49.798;10.022;2023-04-25T00:05:28;146346.22;;;8.31;92.48
5780;BME280;2916;49.798;10.022;2023-04-25T00:07:57;146325.19;;;8.22;92.75
5780;BME280;2916;49.798;10.022;2023-04-25T00:10:25;146294.19;;;8.09;92.34
5780;BME280;2916;49.798;10.022;2023-04-25T00:12:52;146341.25;;;8.29;92.47
5780;BME280;2916;49.798;10.022;2023-04-25T00:15:20;146213.69;;;7.76;92.72
5780;BME280;2916;49.798;10.022;2023-04-25T00:17:47;146352.44;;;8.33;92.75
5780;BME280;2916;49.798;10.022;2023-04-25T00:20:16;146262.00;;;7.96;92.93
5780;BME280;2916;49.798;10.022;2023-04-25T00:22:43;146359.84;;;8.36;93.06
5780;BME280;2916;49.798;10.022;2023-04-25T00:25:11;146297.91;;;8.11;93.29
5780;BME280;2916;49.798;10.022;2023-04-25T00:27:38;146354.91;;;8.34;93.55
5780;BME280;2916;49.798;10.022;2023-04-25T00:30:08;146371.06;;;8.41;93.47
5780;BME280;2916;49.798;10.022;2023-04-25T00:32:36;146374.78;;;8.43;93.29
5780;BME280;2916;49.798;10.022;2023-04-25T00:35:04;146369.81;;;8.41;93.41
5780;BME280;2916;49.798;10.022;2023-04-25T00:37:33;146374.78;;;8.43;93.63
5780;BME280;2916;49.798;10.022;2023-04-25T00:40:00;146359.84;;;8.36;93.93
5780;BME280;2916;49.798;10.022;2023-04-25T00:42:29;146337.56;;;8.27;93.89
5780;BME280;2916;49.798;10.022;2023-04-25T00:44:59;146372.31;;;8.42;94.63
5780;BME280;2916;49.798;10.022;2023-04-25T00:47:28;146335.09;;;8.26;94.02
5780;BME280;2916;49.798;10.022;2023-04-25T00:49:55;146362.41;;;8.38;93.92
5780;BME280;2916;49.798;10.022;2023-04-25T00:52:22;146346.22;;;8.31;94.56
5780;BME280;2916;49.798;10.022;2023-04-25T00:54:51;146322.66;;;8.21;94.59
5780;BME280;2916;49.798;10.022;2023-04-25T00:57:19;146186.44;;;7.65;95.15
5780;BME280;2916;49.798;10.022;2023-04-25T00:59:46;146318.97;;;8.20;95.24
5780;BME280;2916;49.798;10.022;2023-04-25T01:02:13;146175.31;;;7.60;95.30
5780;BME280;2916;49.798;10.022;2023-04-25T01:04:41;146316.50;;;8.19;94.81
5780;BME280;2916;49.798;10.022;2023-04-25T01:07:08;146191.41;;;7.67;94.60
5780;BME280;2916;49.798;10.022;2023-04-25T01:09:36;146325.19;;;8.22;94.91
5780;BME280;2916;49.798;10.022;2023-04-25T01:12:05;146312.75;;;8.17;95.17
5780;BME280;2916;49.798;10.022;2023-04-25T01:14:33;146191.41;;;7.67;95.42
5780;BME280;2916;49.798;10.022;2023-04-25T01:17:01;146306.59;;;8.15;96.39
5780;BME280;2916;49.798;10.022;2023-04-25T01:19:29;146322.66;;;8.21;96.10
5780;BME280;2916;49.798;10.022;2023-04-25T01:21:58;146317.75;;;8.19;96.15
5780;BME280;2916;49.798;10.022;2023-04-25T01:24:26;146302.84;;;8.13;96.03
5780;BME280;2916;49.798;10.022;2023-04-25T01:26:54;146311.53;;;8.17;96.03
5780;BME280;2916;49.798;10.022;2023-04-25T01:29:24;146296.69;;;8.10;95.38
5780;BME280;2916;49.798;10.022;2023-04-25T01:31:52;146248.38;;;7.91;95.59
5780;BME280;2916;49.798;10.022;2023-04-25T01:34:20;146311.53;;;8.17;94.58
5780;BME280;2916;49.798;10.022;2023-04-25T01:36:50;146315.28;;;8.18;95.34
5780;BME280;2916;49.798;10.022;2023-04-25T01:39:19;146307.84;;;8.15;95.34
5780;BME280;2916;49.798;10.022;2023-04-25T01:41:47;146299.16;;;8.11;95.62
5780;BME280;2916;49.798;10.022;2023-04-25T01:44:15;146320.22;;;8.20;96.61
5780;BME280;2916;49.798;10.022;2023-04-25T01:46:43;146296.69;;;8.10;97.14
5780;BME280;2916;49.798;10.022;2023-04-25T01:49:10;146327.66;;;8.23;97.25
5780;BME280;2916;49.798;10.022;2023-04-25T01:51:38;146302.84;;;8.13;97.99
5780;BME280;2916;49.798;10.022;2023-04-25T01:54:05;146302.84;;;8.13;97.24
5780;BME280;2916;49.798;10.022;2023-04-25T01:56:37;146177.75;;;7.61;95.64
5780;BME280;2916;49.798;10.022;2023-04-25T01:59:05;146226.06;;;7.81;95.35
5780;BME280;2916;49.798;10.022;2023-04-25T02:01:33;146297.91;;;8.11;96.48
5780;BME280;2916;49.798;10.022;2023-04-25T02:04:00;146169.09;;;7.58;95.83
5780;BME280;2916;49.798;10.022;2023-04-25T02:06:27;146226.06;;;7.81;96.67
5780;BME280;2916;49.798;10.022;2023-04-25T02:08:54;146245.88;;;7.90;96.66
5780;BME280;2916;49.798;10.022;2023-04-25T02:11:22;146218.66;;;7.78;96.88
5780;BME280;2916;49.798;10.022;2023-04-25T02:13:51;146252.09;;;7.92;96.54
5780;BME280;2916;49.798;10.022;2023-04-25T02:16:18;146240.94;;;7.87;96.36
5780;BME280;2916;49.798;10.022;2023-04-25T02:18:45;146228.56;;;7.82;97.30
5780;BME280;2916;49.798;10.022;2023-04-25T02:21:12;146200.09;;;7.71;97.30
5780;BME280;2916;49.798;10.022;2023-04-25T02:23:39;146144.34;;;7.48;98.40
5780;BME280;2916;49.798;10.022;2023-04-25T02:26:07;146070.06;;;7.17;98.06
5780;BME280;2916;49.798;10.022;2023-04-25T02:28:34;146208.75;;;7.74;98.43
5780;BME280;2916;49.798;10.022;2023-04-25T02:31:03;146198.81;;;7.70;98.88
5780;BME280;2916;49.798;10.022;2023-04-25T02:33:30;146203.78;;;7.72;99.68
5780;BME280;2916;49.798;10.022;2023-04-25T02:35:58;146203.78;;;7.72;99.68
5780;BME280;2916;49.798;10.022;2023-04-25T02:38:25;146084.94;;;7.23;99.50
5780;BME280;2916;49.798;10.022;2023-04-25T02:40:52;146176.53;;;7.61;99.23
5780;BME280;2916;49.798;10.022;2023-04-25T02:43:19;146129.47;;;7.42;98.91
5780;BME280;2916;49.798;10.022;2023-04-25T02:45:47;146188.91;;;7.66;99.42
5780;BME280;2916;49.798;10.022;2023-04-25T02:48:16;146177.75;;;7.61;99.25
5780;BME280;2916;49.798;10.022;2023-04-25T02:50:44;146057.69;;;7.12;98.93
5780;BME280;2916;49.798;10.022;2023-04-25T02:53:11;146141.88;;;7.47;99.37
5780;BME280;2916;49.798;10.022;2023-04-25T02:55:38;146186.44;;;7.65;99.27
5780;BME280;2916;49.798;10.022;2023-04-25T02:58:06;146060.16;;;7.13;100.00
5780;BME280;2916;49.798;10.022;2023-04-25T03:00:33;146175.31;;;7.60;99.64
5780;BME280;2916;49.798;10.022;2023-04-25T03:03:00;146169.09;;;7.58;99.98
5780;BME280;2916;49.798;10.022;2023-04-25T03:05:29;146146.81;;;7.49;100.00
5780;BME280;2916;49.798;10.022;2023-04-25T03:07:56;146089.88;;;7.25;100.00
5780;BME280;2916;49.798;10.022;2023-04-25T03:10:23;146077.50;;;7.20;100.00
5780;BME280;2916;49.798;10.022;2023-04-25T03:12:51;146171.59;;;7.59;99.72
5780;BME280;2916;49.798;10.022;2023-04-25T03:15:18;146183.97;;;7.64;99.71
5780;BME280;2916;49.798;10.022;2023-04-25T03:17:45;146191.41;;;7.67;99.98
5780;BME280;2916;49.798;10.022;2023-04-25T03:20:13;146174.06;;;7.60;100.00
5780;BME280;2916;49.798;10.022;2023-04-25T03:22:41;146165.41;;;7.56;99.84
5780;BME280;2916;49.798;10.022;2023-04-25T03:25:10;146119.56;;;7.37;99.95
5780;BME280;2916;49.798;10.022;2023-04-25T03:27:37;146098.53;;;7.29;100.00
5780;BME280;2916;49.798;10.022;2023-04-25T03:30:06;146139.38;;;7.46;100.00
5780;BME280;2916;49.798;10.022;2023-04-25T03:32:35;146156.72;;;7.53;100.00
5780;BME280;2916;49.798;10.022;2023-04-25T03:35:03;146131.94;;;7.43;100.00
5780;BME280;2916;49.798;10.022;2023-04-25T03:37:31;146167.84;;;7.57;100.00
5780;BME280;2916;49.798;10.022;2023-04-25T03:39:59;146013.13;;;6.94;99.87
5780;BME280;2916;49.798;10.022;2023-04-25T03:42:26;146115.88;;;7.36;100.00
5780;BME280;2916;49.798;10.022;2023-04-25T03:44:53;146068.84;;;7.17;99.61
5780;BME280;2916;49.798;10.022;2023-04-25T03:47:21;146067.59;;;7.16;99.87
5780;BME280;2916;49.798;10.022;2023-04-25T03:49:48;146077.50;;;7.20;99.20
5780;BME280;2916;49.798;10.022;2023-04-25T03:52:17;146103.47;;;7.31;99.77
5780;BME280;2916;49.798;10.022;2023-04-25T03:54:44;146082.44;;;7.22;100.00
5780;BME280;2916;49.798;10.022;2023-04-25T03:57:14;146079.97;;;7.21;100.00
5780;BME280;2916;49.798;10.022;2023-04-25T03:59:41;146123.31;;;7.39;100.00
5780;BME280;2916;49.798;10.022;2023-04-25T04:02:08;146131.94;;;7.43;100.00
5780;BME280;2916;49.798;10.022;2023-04-25T04:04:35;146093.56;;;7.27;100.00
5780;BME280;2916;49.798;10.022;2023-04-25T04:07:03;146088.63;;;7.25;100.00
5780;BME280;2916;49.798;10.022;2023-04-25T04:09:30;146118.34;;;7.37;100.00
5780;BME280;2916;49.798;10.022;2023-04-25T04:11:57;146070.06;;;7.17;100.00
5780;BME280;2916;49.798;10.022;2023-04-25T04:14:26;146079.97;;;7.21;100.00
5780;BME280;2916;49.798;10.022;2023-04-25T04:16:53;146139.38;;;7.46;100.00
5780;BME280;2916;49.798;10.022;2023-04-25T04:19:20;146108.44;;;7.33;100.00
5780;BME280;2916;49.798;10.022;2023-04-25T04:21:47;146112.13;;;7.34;100.00
5780;BME280;2916;49.798;10.022;2023-04-25T04:24:14;146124.53;;;7.40;100.00
5780;BME280;2916;49.798;10.022;2023-04-25T04:26:42;146138.16;;;7.45;100.00
5780;BME280;2916;49.798;10.022;2023-04-25T04:29:11;146153.03;;;7.51;100.00
5780;BME280;2916;49.798;10.022;2023-04-25T04:31:48;146162.94;;;7.55;100.00
5780;BME280;2916;49.798;10.022;2023-04-25T04:34:15;146160.41;;;7.54;100.00
5780;BME280;2916;49.798;10.022;2023-04-25T04:36:43;146151.78;;;7.51;100.00
5780;BME280;2916;49.798;10.022;2023-04-25T04:39:12;145987.13;;;6.83;100.00
5780;BME280;2916;49.798;10.022;2023-04-25T04:41:39;146134.44;;;7.44;100.00
5780;BME280;2916;49.798;10.022;2023-04-25T04:44:06;146143.13;;;7.47;100.00
5780;BME280;2916;49.798;10.022;2023-04-25T04:46:34;146039.13;;;7.04;100.00
5780;BME280;2916;49.798;10.022;2023-04-25T04:49:05;146157.97;;;7.53;100.00
5780;BME280;2916;49.798;10.022;2023-04-25T04:51:32;146143.13;;;7.47;99.32
5780;BME280;2916;49.798;10.022;2023-04-25T04:53:59;146164.16;;;7.56;99.67
5780;BME280;2916;49.798;10.022;2023-04-25T04:56:28;146161.69;;;7.55;100.00
5780;BME280;2916;49.798;10.022;2023-04-25T04:58:56;146112.13;;;7.34;99.41
5780;BME280;2916;49.798;10.022;2023-04-25T05:01:24;146136.91;;;7.45;99.38
5780;BME280;2916;49.798;10.022;2023-04-25T05:03:51;146140.59;;;7.46;99.31
5780;BME280;2916;49.798;10.022;2023-04-25T05:06:32;146169.09;;;7.58;99.73
5780;BME280;2916;49.798;10.022;2023-04-25T05:09:00;146151.78;;;7.51;98.72
5780;BME280;2916;49.798;10.022;2023-04-25T05:11:27;146160.41;;;7.54;97.78
5780;BME280;2916;49.798;10.022;2023-04-25T05:13:54;146114.66;;;7.35;98.35
5780;BME280;2916;49.798;10.022;2023-04-25T05:16:22;146114.66;;;7.35;98.95
5780;BME280;2916;49.798;10.022;2023-04-25T05:18:49;146151.78;;;7.51;98.63
5780;BME280;2916;49.798;10.022;2023-04-25T05:21:16;146099.78;;;7.29;98.11
5780;BME280;2916;49.798;10.022;2023-04-25T05:23:45;146119.56;;;7.37;98.73
5780;BME280;2916;49.798;10.022;2023-04-25T05:26:12;146161.69;;;7.55;98.58
5780;BME280;2916;49.798;10.022;2023-04-25T05:28:40;146110.91;;;7.34;98.15
5780;BME280;2916;49.798;10.022;2023-04-25T05:31:09;146176.53;;;7.61;97.97
5780;BME280;2916;49.798;10.022;2023-04-25T05:33:36;146198.81;;;7.70;98.48
5780;BME280;2916;49.798;10.022;2023-04-25T05:36:05;146182.75;;;7.63;97.83
5780;BME280;2916;49.798;10.022;2023-04-25T05:38:32;146208.75;;;7.74;98.34
5780;BME280;2916;49.798;10.022;2023-04-25T05:41:00;146228.56;;;7.82;97.53
5780;BME280;2916;49.798;10.022;2023-04-25T05:43:28;146226.06;;;7.81;96.87
5780;BME280;2916;49.798;10.022;2023-04-25T05:45:55;146239.72;;;7.87;96.70
5780;BME280;2916;49.798;10.022;2023-04-25T05:48:22;146235.97;;;7.85;96.53
5780;BME280;2916;49.798;10.022;2023-04-25T05:50:49;146174.06;;;7.60;96.67
5780;BME280;2916;49.798;10.022;2023-04-25T05:53:17;146278.09;;;8.03;95.83
5780;BME280;2916;49.798;10.022;2023-04-25T05:55:44;146301.63;;;8.12;95.54
5780;BME280;2916;49.798;10.022;2023-04-25T05:58:13;146300.38;;;8.12;94.91
5780;BME280;2916;49.798;10.022;2023-04-25T06:00:41;146315.28;;;8.18;95.15
5780;BME280;2916;49.798;10.022;2023-04-25T06:03:08;146335.09;;;8.26;94.85
5780;BME280;2916;49.798;10.022;2023-04-25T06:05:36;146351.16;;;8.33;93.99
5780;BME280;2916;49.798;10.022;2023-04-25T06:08:04;146315.28;;;8.18;93.04
5780;BME280;2916;49.798;10.022;2023-04-25T06:10:32;146314.03;;;8.18;92.03
5780;BME280;2916;49.798;10.022;2023-04-25T06:12:59;146270.66;;;8.00;91.46
5780;BME280;2916;49.798;10.022;2023-04-25T06:15:27;146349.94;;;8.32;91.35
5780;BME280;2916;49.798;10.022;2023-04-25T06:17:55;146387.16;;;8.48;91.16
5780;BME280;2916;49.798;10.022;2023-04-25T06:20:22;146332.63;;;8.25;90.94
5780;BME280;2916;49.798;10.022;2023-04-25T06:22:52;146369.81;;;8.41;89.61
5780;BME280;2916;49.798;10.022;2023-04-25T06:25:20;146332.63;;;8.25;89.80
5780;BME280;2916;49.798;10.022;2023-04-25T06:27:47;146397.06;;;8.52;89.93
5780;BME280;2916;49.798;10.022;2023-04-25T06:30:14;146374.78;;;8.43;90.31
5780;BME280;2916;49.798;10.022;2023-04-25T06:32:45;146383.47;;;8.46;90.24
5780;BME280;2916;49.798;10.022;2023-04-25T06:35:13;146343.78;;;8.30;88.41
5780;BME280;2916;49.798;10.022;2023-04-25T06:37:40;146366.09;;;8.39;88.85
5780;BME280;2916;49.798;10.022;2023-04-25T06:40:09;146342.53;;;8.29;88.38
5780;BME280;2916;49.798;10.022;2023-04-25T06:42:36;146388.38;;;8.48;87.59
5780;BME280;2916;49.798;10.022;2023-04-25T06:45:04;146423.09;;;8.63;87.84
5780;BME280;2916;49.798;10.022;2023-04-25T06:47:31;146429.31;;;8.65;87.36
5780;BME280;2916;49.798;10.022;2023-04-25T06:50:00;146444.16;;;8.71;86.16
5780;BME280;2916;49.798;10.022;2023-04-25T06:52:27;146471.44;;;8.82;84.02
5780;BME280;2916;49.798;10.022;2023-04-25T06:54:54;146513.56;;;9.00;84.06
5780;BME280;2916;49.798;10.022;2023-04-25T06:57:21;146399.56;;;8.53;82.35
5780;BME280;2916;49.798;10.022;2023-04-25T06:59:49;146493.72;;;8.92;81.59
5780;BME280;2916;49.798;10.022;2023-04-25T07:02:16;146534.66;;;9.08;79.50
5780;BME280;2916;49.798;10.022;2023-04-25T07:04:43;146558.19;;;9.18;79.16
5780;BME280;2916;49.798;10.022;2023-04-25T07:07:13;146647.50;;;9.55;77.04
5780;BME280;2916;49.798;10.022;2023-04-25T07:09:40;146746.69;;;9.96;76.72
5780;BME280;2916;49.798;10.022;2023-04-25T07:12:07;146764.06;;;10.03;75.89
5780;BME280;2916;49.798;10.022;2023-04-25T07:14:34;146798.78;;;10.17;73.96
5780;BME280;2916;49.798;10.022;2023-04-25T07:17:01;146766.53;;;10.04;73.12
5780;BME280;2916;49.798;10.022;2023-04-25T07:19:28;146849.72;;;10.38;72.75
5780;BME280;2916;49.798;10.022;2023-04-25T07:22:01;146833.56;;;10.31;70.09
5780;BME280;2916;49.798;10.022;2023-04-25T07:24:29;146811.22;;;10.22;68.37
5780;BME280;2916;49.798;10.022;2023-04-25T07:26:56;146791.38;;;10.14;69.98
5780;BME280;2916;49.798;10.022;2023-04-25T07:29:24;146858.41;;;10.42;70.06
5780;BME280;2916;49.798;10.022;2023-04-25T07:31:51;146853.44;;;10.40;71.88
5780;BME280;2916;49.798;10.022;2023-04-25T07:34:18;146872.03;;;10.47;71.03
5780;BME280;2916;49.798;10.022;2023-04-25T07:36:45;146778.94;;;10.09;68.85
5780;BME280;2916;49.798;10.022;2023-04-25T07:39:13;146760.31;;;10.01;69.85
5780;BME280;2916;49.798;10.022;2023-04-25T07:41:42;146751.63;;;9.98;69.68
5780;BME280;2916;49.798;10.022;2023-04-25T07:44:09;146729.31;;;9.89;69.44
5780;BME280;2916;49.798;10.022;2023-04-25T07:46:36;146781.44;;;10.10;67.92
5780;BME280;2916;49.798;10.022;2023-04-25T07:49:03;146914.22;;;10.65;64.81
5780;BME280;2916;49.798;10.022;2023-04-25T07:51:30;147142.63;;;11.59;62.11
5780;BME280;2916;49.798;10.022;2023-04-25T07:53:57;147319.09;;;12.31;61.64
5780;BME280;2916;49.798;10.022;2023-04-25T07:56:25;147484.38;;;12.99;60.23
5780;BME280;2916;49.798;10.022;2023-04-25T07:58:54;147476.88;;;12.96;57.62
5780;BME280;2916;49.798;10.022;2023-04-25T08:01:21;147577.66;;;13.37;57.62
5780;BME280;2916;49.798;10.022;2023-04-25T08:03:48;147521.66;;;13.14;55.26
5780;BME280;2916;49.798;10.022;2023-04-25T08:06:16;147629.88;;;13.59;55.20
5780;BME280;2916;49.798;10.022;2023-04-25T08:08:43;147684.59;;;13.81;54.55
5780;BME280;2916;49.798;10.022;2023-04-25T08:11:10;147791.56;;;14.25;53.94
5780;BME280;2916;49.798;10.022;2023-04-25T08:13:37;147758.00;;;14.11;53.95
5780;BME280;2916;49.798;10.022;2023-04-25T08:16:06;147892.41;;;14.66;53.31
5780;BME280;2916;49.798;10.022;2023-04-25T08:18:33;147904.84;;;14.71;53.08
5780;BME280;2916;49.798;10.022;2023-04-25T08:21:00;147848.78;;;14.48;52.58
5780;BME280;2916;49.798;10.022;2023-04-25T08:23:28;147939.72;;;14.86;53.87
5780;BME280;2916;49.798;10.022;2023-04-25T08:25:55;147886.19;;;14.64;52.33
5780;BME280;2916;49.798;10.022;2023-04-25T08:28:22;148001.91;;;15.11;53.71
5780;BME280;2916;49.798;10.022;2023-04-25T08:30:49;147960.84;;;14.94;51.71
5780;BME280;2916;49.798;10.022;2023-04-25T08:33:18;147909.81;;;14.73;52.31
5780;BME280;2916;49.798;10.022;2023-04-25T08:35:45;147991.97;;;15.07;52.88
5780;BME280;2916;49.798;10.022;2023-04-25T08:38:12;148009.41;;;15.14;52.27
5780;BME280;2916;49.798;10.022;2023-04-25T08:40:40;147912.31;;;14.75;52.52
5780;BME280;2916;49.798;10.022;2023-04-25T08:43:07;148076.63;;;15.42;52.04
5780;BME280;2916;49.798;10.022;2023-04-25T08:45:39;148016.88;;;15.17;51.87
5780;BME280;2916;49.798;10.022;2023-04-25T08:48:12;147947.13;;;14.89;51.90
5780;BME280;2916;49.798;10.022;2023-04-25T08:50:45;148054.22;;;15.33;52.76
5780;BME280;2916;49.798;10.022;2023-04-25T08:53:22;148121.47;;;15.60;51.80
5780;BME280;2916;49.798;10.022;2023-04-25T08:55:55;147984.50;;;15.04;52.39
5780;BME280;2916;49.798;10.022;2023-04-25T08:58:23;147949.66;;;14.90;53.00
5780;BME280;2916;49.798;10.022;2023-04-25T09:00:51;148128.91;;;15.63;52.36
5780;BME280;2916;49.798;10.022;2023-04-25T09:03:19;147967.06;;;14.97;53.33
5780;BME280;2916;49.798;10.022;2023-04-25T09:05:48;147983.25;;;15.04;53.24
5780;BME280;2916;49.798;10.022;2023-04-25T09:08:15;147845.06;;;14.47;51.29
5780;BME280;2916;49.798;10.022;2023-04-25T09:10:43;148069.16;;;15.39;51.63
5780;BME280;2916;49.798;10.022;2023-04-25T09:13:13;148113.97;;;15.57;50.45
5780;BME280;2916;49.798;10.022;2023-04-25T09:15:48;148009.41;;;15.14;50.80
5780;BME280;2916;49.798;10.022;2023-04-25T09:18:27;148021.84;;;15.19;51.87
5780;BME280;2916;49.798;10.022;2023-04-25T09:21:05;147938.41;;;14.85;51.27
5780;BME280;2916;49.798;10.022;2023-04-25T09:23:40;147989.50;;;15.06;50.64
5780;BME280;2916;49.798;10.022;2023-04-25T09:26:08;147903.59;;;14.71;51.69
5780;BME280;2916;49.798;10.022;2023-04-25T09:28:35;147826.41;;;14.39;49.56
5780;BME280;2916;49.798;10.022;2023-04-25T09:31:03;147926.00;;;14.80;49.94
5780;BME280;2916;49.798;10.022;2023-04-25T09:33:33;147952.13;;;14.91;50.91
5780;BME280;2916;49.798;10.022;2023-04-25T09:36:08;147862.56;;;14.54;52.07
5780;BME280;2916;49.798;10.022;2023-04-25T09:38:41;147914.81;;;14.76;52.22
5780;BME280;2916;49.798;10.022;2023-04-25T09:41:10;147977.00;;;15.01;50.26
5780;BME280;2916;49.798;10.022;2023-04-25T09:43:38;148052.94;;;15.32;49.45
5780;BME280;2916;49.798;10.022;2023-04-25T09:46:09;148014.34;;;15.16;49.69
5780;BME280;2916;49.798;10.022;2023-04-25T09:48:37;148045.50;;;15.29;50.57
5780;BME280;2916;49.798;10.022;2023-04-25T09:51:09;147990.72;;;15.07;50.30
5780;BME280;2916;49.798;10.022;2023-04-25T09:53:38;148010.63;;;15.15;50.47
5780;BME280;2916;49.798;10.022;2023-04-25T09:56:09;148035.56;;;15.25;49.97
5780;BME280;2916;49.798;10.022;2023-04-25T09:58:39;147989.50;;;15.06;50.17
5780;BME280;2916;49.798;10.022;2023-04-25T10:01:08;147974.53;;;15.00;50.55
5780;BME280;2916;49.798;10.022;2023-04-25T10:03:38;147877.47;;;14.60;49.43
5780;BME280;2916;49.798;10.022;2023-04-25T10:06:12;147903.59;;;14.71;51.36
5780;BME280;2916;49.798;10.022;2023-04-25T10:08:41;147836.38;;;14.43;52.54
5780;BME280;2916;49.798;10.022;2023-04-25T10:11:09;147766.72;;;14.15;51.59
5780;BME280;2916;49.798;10.022;2023-04-25T10:13:41;147774.13;;;14.18;50.59
5780;BME280;2916;49.798;10.022;2023-04-25T10:16:08;147764.19;;;14.14;48.48
5780;BME280;2916;49.798;10.022;2023-04-25T10:18:36;147832.59;;;14.42;49.74
5780;BME280;2916;49.798;10.022;2023-04-25T10:21:05;147897.38;;;14.68;50.75
5780;BME280;2916;49.798;10.022;2023-04-25T10:23:36;147852.56;;;14.50;49.61
5780;BME280;2916;49.798;10.022;2023-04-25T10:26:04;147842.56;;;14.46;49.91
5780;BME280;2916;49.798;10.022;2023-04-25T10:28:55;147882.47;;;14.62;50.36
5780;BME280;2916;49.798;10.022;2023-04-25T10:31:23;147813.94;;;14.34;49.65
5780;BME280;2916;49.798;10.022;2023-04-25T10:33:50;147822.66;;;14.38;50.02
5780;BME280;2916;49.798;10.022;2023-04-25T10:36:19;147835.13;;;14.43;49.45
5780;BME280;2916;49.798;10.022;2023-04-25T10:38:51;147832.59;;;14.42;49.25
5780;BME280;2916;49.798;10.022;2023-04-25T10:41:20;147818.94;;;14.36;51.48
5780;BME280;2916;49.798;10.022;2023-04-25T10:43:49;147754.25;;;14.10;50.73
5780;BME280;2916;49.798;10.022;2023-04-25T10:46:28;147939.72;;;14.86;51.93
5780;BME280;2916;49.798;10.022;2023-04-25T10:48:57;147908.56;;;14.73;51.47
5780;BME280;2916;49.798;10.022;2023-04-25T10:51:27;147907.31;;;14.72;50.82
5780;BME280;2916;49.798;10.022;2023-04-25T10:54:00;147852.56;;;14.50;50.12
5780;BME280;2916;49.798;10.022;2023-04-25T10:56:30;148021.84;;;15.19;49.89
5780;BME280;2916;49.798;10.022;2023-04-25T10:59:06;147973.28;;;15.00;50.76
5780;BME280;2916;49.798;10.022;2023-04-25T11:01:39;147968.34;;;14.97;52.02
5780;BME280;2916;49.798;10.022;2023-04-25T11:04:20;147841.31;;;14.45;50.05
5780;BME280;2916;49.798;10.022;2023-04-25T11:07:04;147753.00;;;14.09;50.48
5780;BME280;2916;49.798;10.022;2023-04-25T11:09:35;147700.78;;;13.88;50.64
5780;BME280;2916;49.798;10.022;2023-04-25T11:12:03;147767.94;;;14.15;51.15
5780;BME280;2916;49.798;10.022;2023-04-25T11:14:30;147790.31;;;14.24;51.79
5780;BME280;2916;49.798;10.022;2023-04-25T11:16:59;147838.84;;;14.44;51.95
5780;BME280;2916;49.798;10.022;2023-04-25T11:19:27;147817.69;;;14.36;50.99
5780;BME280;2916;49.798;10.022;2023-04-25T11:21:55;147894.88;;;14.67;50.86
5780;BME280;2916;49.798;10.022;2023-04-25T11:24:26;147840.09;;;14.45;51.33
5780;BME280;2916;49.798;10.022;2023-04-25T11:26:57;147802.75;;;14.30;51.88
5780;BME280;2916;49.798;10.022;2023-04-25T11:29:27;147759.22;;;14.12;51.88
5780;BME280;2916;49.798;10.022;2023-04-25T11:31:55;147785.31;;;14.22;52.03
5780;BME280;2916;49.798;10.022;2023-04-25T11:34:23;147723.16;;;13.97;51.30
5780;BME280;2916;49.798;10.022;2023-04-25T11:36:52;147662.22;;;13.72;51.11
5780;BME280;2916;49.798;10.022;2023-04-25T11:39:20;147680.88;;;13.80;51.35
5780;BME280;2916;49.798;10.022;2023-04-25T11:41:47;147730.63;;;14.00;51.00
5780;BME280;2916;49.798;10.022;2023-04-25T11:44:18;147641.03;;;13.63;50.64
5780;BME280;2916;49.798;10.022;2023-04-25T11:46:45;147559.00;;;13.30;52.26
5780;BME280;2916;49.798;10.022;2023-04-25T11:49:13;147643.56;;;13.64;53.37
5780;BME280;2916;49.798;10.022;2023-04-25T11:51:41;147658.47;;;13.70;52.75
5780;BME280;2916;49.798;10.022;2023-04-25T11:54:09;147646.03;;;13.65;53.37
5780;BME280;2916;49.798;10.022;2023-04-25T11:56:36;147639.81;;;13.63;53.18
5780;BME280;2916;49.798;10.022;2023-04-25T11:59:05;147601.25;;;13.47;53.95
5780;BME280;2916;49.798;10.022;2023-04-25T12:01:35;147571.44;;;13.35;50.72
5780;BME280;2916;49.798;10.022;2023-04-25T12:04:13;147608.72;;;13.50;51.26
5780;BME280;2916;49.798;10.022;2023-04-25T12:06:44;147524.13;;;13.15;51.77
5780;BME280;2916;49.798;10.022;2023-04-25T12:09:14;147526.59;;;13.16;51.74
5780;BME280;2916;49.798;10.022;2023-04-25T12:11:44;147563.97;;;13.32;51.54
5780;BME280;2916;49.798;10.022;2023-04-25T12:14:19;147565.19;;;13.32;51.60
5780;BME280;2916;49.798;10.022;2023-04-25T12:16:50;147521.66;;;13.14;51.98
5780;BME280;2916;49.798;10.022;2023-04-25T12:19:19;147581.38;;;13.39;51.22
5780;BME280;2916;49.798;10.022;2023-04-25T12:21:47;147509.25;;;13.09;51.52
5780;BME280;2916;49.798;10.022;2023-04-25T12:24:17;147499.31;;;13.05;51.62
5780;BME280;2916;49.798;10.022;2023-04-25T12:26:52;147473.19;;;12.94;52.69
5780;BME280;2916;49.798;10.022;2023-04-25T12:29:22;147469.44;;;12.93;53.43
5780;BME280;2916;49.798;10.022;2023-04-25T12:31:53;147437.13;;;12.80;53.44
5780;BME280;2916;49.798;10.022;2023-04-25T12:34:23;147428.41;;;12.76;53.73
5780;BME280;2916;49.798;10.022;2023-04-25T12:36:52;147297.97;;;12.22;54.13
5780;BME280;2916;49.798;10.022;2023-04-25T12:39:22;147343.91;;;12.41;55.00
5780;BME280;2916;49.798;10.022;2023-04-25T12:41:49;147285.53;;;12.17;55.44
5780;BME280;2916;49.798;10.022;2023-04-25T12:44:18;147248.25;;;12.02;55.85
5780;BME280;2916;49.798;10.022;2023-04-25T12:46:45;147218.44;;;11.90;56.34
5780;BME280;2916;49.798;10.022;2023-04-25T12:49:14;147111.59;;;11.46;56.11
5780;BME280;2916;49.798;10.022;2023-04-25T12:51:42;147189.81;;;11.78;56.91
5780;BME280;2916;49.798;10.022;2023-04-25T12:54:09;147255.72;;;12.05;57.30
5780;BME280;2916;49.798;10.022;2023-04-25T12:56:36;147243.31;;;12.00;57.62
5780;BME280;2916;49.798;10.022;2023-04-25T12:59:03;147261.94;;;12.08;57.13
5780;BME280;2916;49.798;10.022;2023-04-25T13:01:35;147208.50;;;11.86;57.06
5780;BME280;2916;49.798;10.022;2023-04-25T13:04:02;147288.03;;;12.18;57.31
5780;BME280;2916;49.798;10.022;2023-04-25T13:06:30;147332.75;;;12.37;57.33
5780;BME280;2916;49.798;10.022;2023-04-25T13:08:57;147306.63;;;12.26;57.33
5780;BME280;2916;49.798;10.022;2023-04-25T13:11:24;147322.81;;;12.33;56.20